Greenwood, Washington
Current Conditions -  °F | °C
As of 11:53 AM on Thursday 30 Oct 2014 (Local Time) from KBFI Reporting Station
Light Rain Light Rain  
Wind Chill: 62°   Ceiling: 9000
Heat Index: 62°   Visibility: 10mi
Dew Point: 54°   Wind: 5mph
Humidity: 75%   Direction: 110°ESE
Pressure: 29.82"   Gusts: NA
Location:  47.6716°N, 122.341°W
Report Text: KBFI 301853Z 11004KT 10SM -RA SCT060 OVC090 17/12 A2982 RMK AO2 RAB1755 SLP098 P0001 T01670122
Loading
Personal Weather Stations






























Interactive Weather Map
Tropical Storm Tracking
New forecast layout! Learn more

10-Day Weather Forecast

Advertisements
Track Severe Weather on mobile